PWSweather.com
Personal Weather Stations
Station Observations
KNJOAKLA6
Oakland, NJ 07436

Oakland, NJ 07436

Lat: 41.041, Lon: -74.231

Elevation: 280

Station Type: Davis VP 2

http://stratacolorado.com/oaknjwx/

Latest ConditionsUpdated 3:50:00 AM EST Tuesday, Mar 3, 2015
Currently Today's Max Today's Min Today's Average
Temperature 15.1°F-9.4°C 23.4°F-4.8°C 15.1°F-9.4°C 19.2°F-7.1°C
Dew Point 8.3°F-13.2°C 11.6°F-11.3°C 8.3°F-13.2°C 10.0°F-12.2°C
Winds Calm Calm 2.0 mph SSW3.2 kmh SSW - 0.4 mph 0.6 kmh
Wind Gusts 1.0 mph1.6 kmh 6.0 mph9.7 kmh - -
Humidity 74% 74% 60% 67%
Pressure 30.38 in1028.8 mb 30.38 in1028.8 mb 30.36 in1028.1 mb -
Hour Temp Dew Point Humidity Winds Wind Gusts Pressure Precip Precip Rate Daily Precip Total
03:50 AM 15.1°F-9.4°C 8.3°F-13.2°C 74% Calm Calm 1.0 mph1.6 kmh 30.38 in1028.8 mb 0.00 in0.0 mm 0.00 in/hr0.0 mm/hr 0.00 in0.0 mm
03:40 AM 15.4°F-9.2°C 8.3°F-13.2°C 73% Calm Calm 2.0 mph3.2 kmh 30.38 in1028.8 mb 0.00 in0.0 mm 0.00 in/hr0.0 mm/hr 0.00 in0.0 mm
03:30 AM 15.8°F-9.0°C 8.7°F-12.9°C 73% 1.0 mph NW1.6 kmh NW 4.0 mph6.4 kmh 30.38 in1028.8 mb 0.00 in0.0 mm 0.00 in/hr0.0 mm/hr 0.00 in0.0 mm
03:20 AM 16.4°F-8.7°C 9.0°F-12.8°C 72% Calm Calm 2.0 mph3.2 kmh 30.38 in1028.8 mb 0.00 in0.0 mm 0.00 in/hr0.0 mm/hr 0.00 in0.0 mm
03:10 AM 16.8°F-8.4°C 9.3°F-12.6°C 72% Calm Calm -- 30.37 in1028.4 mb 0.00 in0.0 mm 0.00 in/hr0.0 mm/hr 0.00 in0.0 mm
03:00 AM 17.1°F-8.3°C 9.6°F-12.4°C 72% Calm Calm 4.0 mph6.4 kmh 30.37 in1028.4 mb 0.00 in0.0 mm 0.00 in/hr0.0 mm/hr 0.00 in0.0 mm
02:50 AM 17.0°F-8.3°C 9.8°F-12.3°C 73% 1.0 mph NW1.6 kmh NW 3.0 mph4.8 kmh 30.36 in1028.1 mb 0.00 in0.0 mm 0.00 in/hr0.0 mm/hr 0.00 in0.0 mm
02:40 AM 16.5°F-8.6°C 9.1°F-12.7°C 72% Calm Calm 5.0 mph8.0 kmh 30.36 in1028.1 mb 0.00 in0.0 mm 0.00 in/hr0.0 mm/hr 0.00 in0.0 mm
02:30 AM 17.1°F-8.3°C 9.0°F-12.8°C 70% 1.0 mph NNW1.6 kmh NNW 6.0 mph9.7 kmh 30.36 in1028.1 mb 0.00 in0.0 mm 0.00 in/hr0.0 mm/hr 0.00 in0.0 mm
02:20 AM 17.5°F-8.1°C 9.4°F-12.6°C 70% Calm Calm 1.0 mph1.6 kmh 30.38 in1028.8 mb 0.00 in0.0 mm 0.00 in/hr0.0 mm/hr 0.00 in0.0 mm
02:10 AM 18.1°F-7.7°C 9.6°F-12.4°C 69% Calm Calm 2.0 mph3.2 kmh 30.38 in1028.8 mb 0.00 in0.0 mm 0.00 in/hr0.0 mm/hr 0.00 in0.0 mm
02:00 AM 18.5°F-7.5°C 9.7°F-12.4°C 68% Calm Calm 2.0 mph3.2 kmh 30.38 in1028.8 mb 0.00 in0.0 mm 0.00 in/hr0.0 mm/hr 0.00 in0.0 mm
01:50 AM 19.1°F-7.2°C 9.9°F-12.3°C 67% Calm Calm 3.0 mph4.8 kmh 30.37 in1028.4 mb 0.00 in0.0 mm 0.00 in/hr0.0 mm/hr 0.00 in0.0 mm
01:40 AM 19.7°F-6.8°C 10.2°F-12.1°C 66% 1.0 mph SW1.6 kmh SW 3.0 mph4.8 kmh 30.38 in1028.8 mb 0.00 in0.0 mm 0.00 in/hr0.0 mm/hr 0.00 in0.0 mm
01:30 AM 20.3°F-6.5°C 10.4°F-12.0°C 65% 2.0 mph WSW3.2 kmh WSW 4.0 mph6.4 kmh 30.38 in1028.8 mb 0.00 in0.0 mm 0.00 in/hr0.0 mm/hr 0.00 in0.0 mm
01:20 AM 21.1°F-6.1°C 10.8°F-11.8°C 64% Calm Calm 2.0 mph3.2 kmh 30.37 in1028.4 mb 0.00 in0.0 mm 0.00 in/hr0.0 mm/hr 0.00 in0.0 mm
01:10 AM 21.5°F-5.8°C 10.9°F-11.7°C 63% Calm Calm 5.0 mph8.0 kmh 30.38 in1028.8 mb 0.00 in0.0 mm 0.00 in/hr0.0 mm/hr 0.00 in0.0 mm
01:00 AM 21.9°F-5.6°C 11.2°F-11.6°C 63% Calm Calm 3.0 mph4.8 kmh 30.37 in1028.4 mb 0.00 in0.0 mm 0.00 in/hr0.0 mm/hr 0.00 in0.0 mm
12:50 AM 22.4°F-5.3°C 11.3°F-11.5°C 62% 2.0 mph SSW3.2 kmh SSW 3.0 mph4.8 kmh 30.37 in1028.4 mb 0.00 in0.0 mm 0.00 in/hr0.0 mm/hr 0.00 in0.0 mm
12:40 AM 22.3°F-5.4°C 11.3°F-11.5°C 62% 1.0 mph SW1.6 kmh SW 5.0 mph8.0 kmh 30.37 in1028.4 mb 0.00 in0.0 mm 0.00 in/hr0.0 mm/hr 0.00 in0.0 mm
12:30 AM 22.4°F-5.3°C 11.0°F-11.7°C 61% Calm Calm 3.0 mph4.8 kmh 30.36 in1028.1 mb 0.00 in0.0 mm 0.00 in/hr0.0 mm/hr 0.00 in0.0 mm
12:20 AM 22.7°F-5.2°C 11.3°F-11.5°C 61% 1.0 mph W1.6 kmh W 3.0 mph4.8 kmh 30.36 in1028.1 mb 0.00 in0.0 mm 0.00 in/hr0.0 mm/hr 0.00 in0.0 mm
12:10 AM 23.0°F-5.0°C 11.2°F-11.6°C 60% Calm Calm 5.0 mph8.0 kmh 30.36 in1028.1 mb 0.00 in0.0 mm 0.00 in/hr0.0 mm/hr 0.00 in0.0 mm
12:00 AM 23.4°F-4.8°C 11.6°F-11.3°C 60% Calm Calm 3.0 mph4.8 kmh 30.36 in1028.1 mb 0.00 in0.0 mm 0.00 in/hr0.0 mm/hr 0.28 in7.1 mm